createdAt,value
2023-03-06T00:12:59.353Z,18.665
2023-03-06T00:28:01.285Z,18.363
2023-03-06T00:43:03.196Z,18.549
2023-03-06T00:58:05.029Z,18.591
2023-03-06T01:13:06.838Z,18.396
2023-03-06T01:28:08.716Z,18.524
2023-03-06T01:43:10.618Z,18.696
2023-03-06T01:58:12.480Z,18.913
2023-03-06T02:13:14.325Z,19.136
2023-03-06T02:28:16.180Z,19.055
2023-03-06T02:43:18.007Z,18.721
2023-03-06T02:58:19.851Z,18.608
2023-03-06T03:13:21.755Z,19.215
2023-03-06T03:28:23.633Z,19.462
2023-03-06T03:43:25.599Z,18.561
2023-03-06T03:58:27.448Z,18.89
2023-03-06T04:13:29.301Z,18.358
2023-03-06T04:28:31.133Z,19.252
2023-03-06T04:43:32.971Z,18.195
2023-03-06T04:58:34.829Z,18.23
2023-03-06T05:13:36.706Z,18.637
2023-03-06T05:28:38.565Z,18.26
2023-03-06T05:43:40.369Z,18.641
2023-03-06T05:58:42.179Z,18.881
2023-03-06T06:13:44.062Z,18.127
2023-03-06T06:28:45.918Z,18.245
2023-03-06T06:43:47.781Z,18.572
2023-03-06T06:58:49.627Z,18.049
2023-03-06T07:13:51.467Z,18.546
2023-03-06T07:28:53.382Z,18.526
2023-03-06T07:43:55.243Z,17.91
2023-03-06T07:58:57.263Z,17.968
2023-03-06T08:13:59.138Z,18.509
2023-03-06T08:29:00.986Z,17.821
2023-03-06T08:44:02.827Z,18.584
2023-03-06T08:59:04.691Z,17.806
2023-03-06T09:14:06.559Z,18.477
2023-03-06T09:29:08.397Z,17.828
2023-03-06T09:44:10.191Z,18.113
2023-03-06T09:59:11.994Z,17.87
2023-03-06T10:14:13.827Z,18.052
2023-03-06T10:29:15.734Z,17.892
2023-03-06T10:44:17.607Z,17.843
2023-03-06T10:59:19.483Z,18.013
2023-03-06T11:14:21.350Z,17.847
2023-03-06T11:29:23.256Z,18.336
2023-03-06T11:44:25.207Z,17.804
2023-03-06T11:59:27.059Z,18.162
2023-03-06T12:14:28.917Z,17.592
2023-03-06T12:29:30.786Z,18.129
2023-03-06T12:44:32.644Z,17.666
2023-03-06T12:59:34.455Z,18.138
2023-03-06T13:14:37.583Z,17.66
2023-03-06T13:29:41.590Z,17.998
2023-03-06T13:44:43.439Z,17.424
2023-03-06T13:59:45.458Z,17.755
2023-03-06T14:14:47.274Z,17.511
2023-03-06T14:29:49.185Z,17.253
2023-03-06T14:44:51.023Z,17.824
2023-03-06T14:59:52.871Z,17.141
2023-03-06T15:14:54.775Z,17.652
2023-03-06T15:29:56.615Z,17.595
2023-03-06T15:44:58.599Z,19.162
2023-03-06T16:00:00.520Z,18.458
2023-03-06T16:15:02.396Z,19.561
2023-03-06T16:30:04.369Z,18.995
2023-03-06T16:45:06.330Z,20.206
2023-03-06T17:00:08.235Z,20.68
2023-03-06T17:15:10.092Z,20.255
2023-03-06T17:30:11.944Z,20.648
2023-03-06T17:45:13.870Z,19.793
2023-03-06T18:00:16.010Z,20.108
2023-03-06T18:15:17.871Z,19.38
2023-03-06T18:30:19.936Z,19.686
2023-03-06T18:45:21.798Z,18.967
2023-03-06T19:00:23.670Z,19.474
2023-03-06T19:15:25.562Z,18.619
2023-03-06T19:30:27.367Z,18.845
2023-03-06T19:45:29.201Z,19.002
2023-03-06T20:00:31.054Z,18.552
2023-03-06T20:15:32.982Z,18.941
2023-03-06T20:30:38.351Z,18.481
2023-03-06T20:45:40.431Z,18.341
2023-03-06T21:00:42.282Z,18.449
2023-03-06T21:15:44.197Z,18.507
2023-03-06T21:30:46.036Z,18.582
2023-03-06T21:45:47.922Z,18.608
2023-03-06T22:00:49.883Z,19.134
2023-03-06T22:15:51.724Z,18.728
2023-03-06T22:30:53.565Z,18.533
2023-03-06T22:45:55.439Z,18.825
2023-03-06T23:00:57.311Z,18.803
2023-03-06T23:15:59.214Z,19.026
2023-03-06T23:31:01.330Z,19.729
2023-03-06T23:46:03.746Z,20.108
